Time;durP1;ratioP1;P1;durP2;ratioP2;P2;SDS_P1;SDS_P2;PMS_P1;PMS_P2;Temp;Humidity;BMP_temperature;BMP_pressure;BME280_temperature;BME280_humidity;BME280_pressure;Samples;Min_cycle;Max_cycle;Signal;HPM_P1;HPM_P2
2021/06/11 00:02:01;;;;;;;9.30;7.32;;;;;;;15.37;100.00;98100.78;4995994;28;20026;-81
2021/06/11 00:04:26;;;;;;;8.77;7.65;;;;;;;15.29;100.00;98081.47;4973274;28;20168;-81
2021/06/11 00:06:52;;;;;;;8.70;7.85;;;;;;;15.29;100.00;98086.97;4991317;28;20118;-81
2021/06/11 00:09:17;;;;;;;9.65;7.57;;;;;;;15.33;100.00;98087.97;4991282;28;20073;-80
2021/06/11 00:11:48;;;;;;;10.35;7.93;;;;;;;15.28;100.00;98079.88;4994147;28;20165;-82
2021/06/11 00:14:15;;;;;;;11.98;8.07;;;;;;;15.22;100.00;98078.41;4993674;28;20026;-80
2021/06/11 00:16:40;;;;;;;8.43;7.53;;;;;;;15.22;100.00;98070.94;4991170;28;20034;-79
2021/06/11 00:19:06;;;;;;;11.35;8.02;;;;;;;15.21;100.00;98065.75;4993010;28;20040;-82
2021/06/11 00:21:31;;;;;;;9.27;7.63;;;;;;;15.16;100.00;98063.16;4982977;28;21144;-82
2021/06/11 00:23:56;;;;;;;8.60;7.70;;;;;;;15.19;100.00;98068.03;5001159;28;20080;-81
2021/06/11 00:26:22;;;;;;;8.27;6.78;;;;;;;15.18;100.00;98074.66;5002228;28;20066;-81
2021/06/11 00:28:47;;;;;;;8.65;6.25;;;;;;;15.08;100.00;98064.75;4986381;28;20084;-80
2021/06/11 00:31:13;;;;;;;12.93;7.30;;;;;;;14.94;100.00;98064.88;4980203;28;20034;-80
2021/06/11 00:33:38;;;;;;;7.85;7.05;;;;;;;15.10;100.00;98067.97;4982354;28;20045;-80
2021/06/11 00:36:04;;;;;;;10.55;7.50;;;;;;;15.22;100.00;98068.19;5002337;28;20033;-80
2021/06/11 00:38:31;;;;;;;11.90;7.07;;;;;;;15.02;100.00;98069.63;4996086;28;20073;-79
2021/06/11 00:40:58;;;;;;;8.25;6.95;;;;;;;14.85;100.00;98061.28;4973163;28;20149;-82
2021/06/11 00:43:24;;;;;;;10.32;6.65;;;;;;;14.91;100.00;98071.03;4973258;28;20419;-82
2021/06/11 00:45:49;;;;;;;6.53;5.78;;;;;;;14.84;100.00;98070.72;4990679;28;20026;-80
2021/06/11 00:48:15;;;;;;;13.15;6.95;;;;;;;14.81;100.00;98060.34;4990572;28;20050;-84
2021/06/11 00:50:41;;;;;;;10.38;6.93;;;;;;;14.74;100.00;98065.50;4990505;28;20041;-82
2021/06/11 00:53:10;;;;;;;8.60;6.68;;;;;;;14.66;100.00;98055.25;4990864;28;20395;-81
2021/06/11 00:55:37;;;;;;;7.95;6.00;;;;;;;14.61;100.00;98058.16;4996927;28;20499;-80
2021/06/11 00:58:03;;;;;;;7.50;5.78;;;;;;;14.71;100.00;98057.88;4998925;28;20026;-83
2021/06/11 01:00:29;;;;;;;9.50;6.47;;;;;;;14.84;100.00;98065.19;5004365;28;20034;-82
2021/06/11 01:02:55;;;;;;;9.48;6.15;;;;;;;14.76;100.00;98052.19;5010196;28;20030;-81
2021/06/11 01:05:20;;;;;;;9.30;6.75;;;;;;;14.80;100.00;98053.19;5010113;28;20403;-81
2021/06/11 01:07:52;;;;;;;6.75;6.03;;;;;;;14.66;100.00;98058.00;5010389;28;20034;-81
2021/06/11 01:10:17;;;;;;;7.70;6.05;;;;;;;14.63;100.00;98053.13;5010320;28;20109;-82
2021/06/11 01:12:45;;;;;;;8.05;5.95;;;;;;;14.61;100.00;98063.66;5009942;28;20124;-79
2021/06/11 01:15:11;;;;;;;9.13;6.68;;;;;;;14.70;100.00;98058.19;4993957;28;20121;-83
2021/06/11 01:17:38;;;;;;;8.00;6.35;;;;;;;14.54;100.00;98060.56;5013910;28;20479;-80
2021/06/11 01:20:09;;;;;;;9.15;6.45;;;;;;;14.50;100.00;98065.09;5013507;28;20117;-80
2021/06/11 01:22:47;;;;;;;10.57;7.97;;;;;;;14.39;100.00;98064.56;5013668;28;21026;-82
2021/06/11 01:25:21;;;;;;;9.20;8.30;;;;;;;14.27;100.00;98060.72;5012671;28;20753;-82
2021/06/11 01:27:46;;;;;;;11.00;8.38;;;;;;;14.21;100.00;98062.00;5013258;28;20034;-80
2021/06/11 01:30:20;;;;;;;12.23;8.05;;;;;;;14.21;100.00;98062.00;5013530;28;20037;-80
2021/06/11 01:32:48;;;;;;;11.02;8.40;;;;;;;14.27;100.00;98074.50;5002410;28;20026;-81
2021/06/11 01:35:19;;;;;;;12.35;9.50;;;;;;;14.17;100.00;98077.50;5004407;28;20022;-80
2021/06/11 01:37:47;;;;;;;9.55;7.82;;;;;;;14.14;100.00;98072.63;4994927;28;20026;-84
2021/06/11 01:40:13;;;;;;;17.42;8.23;;;;;;;14.05;100.00;98074.53;5013735;28;20030;-84
2021/06/11 01:42:46;;;;;;;9.05;8.13;;;;;;;14.04;100.00;98072.91;5012910;28;20036;-83
2021/06/11 01:45:13;;;;;;;9.80;8.30;;;;;;;13.97;100.00;98065.09;5013496;28;20060;-83
2021/06/11 01:47:44;;;;;;;8.20;7.15;;;;;;;13.98;100.00;98071.41;5013113;28;20053;-81
2021/06/11 01:50:13;;;;;;;12.43;8.30;;;;;;;13.97;100.00;98069.81;5013348;28;20116;-84
2021/06/11 01:52:39;;;;;;;9.43;8.27;;;;;;;13.94;100.00;98069.28;5012805;28;20030;-83
2021/06/11 01:55:07;;;;;;;10.52;8.10;;;;;;;13.91;100.00;98071.84;5014200;28;20467;-83
2021/06/11 01:57:34;;;;;;;9.52;7.88;;;;;;;13.90;100.00;98064.75;5021020;28;20045;-81
2021/06/11 02:00:01;;;;;;;12.68;8.77;;;;;;;13.81;100.00;98064.66;5002328;28;20485;-82
2021/06/11 02:02:28;;;;;;;7.95;7.15;;;;;;;14.05;100.00;98058.84;5014794;28;20508;-85
2021/06/11 02:04:55;;;;;;;13.77;8.48;;;;;;;14.07;100.00;98053.00;5014443;28;20442;-81
2021/06/11 02:07:22;;;;;;;14.00;8.50;;;;;;;13.90;100.00;98056.50;5008491;28;20033;-80
2021/06/11 02:09:49;;;;;;;8.65;7.75;;;;;;;13.85;100.00;98060.19;5003069;28;20026;-80
2021/06/11 02:12:15;;;;;;;12.68;8.90;;;;;;;13.78;100.00;98046.03;5004751;28;20097;-82
2021/06/11 02:14:41;;;;;;;13.02;8.32;;;;;;;13.89;100.00;98049.38;5012979;28;20114;-80
2021/06/11 02:17:08;;;;;;;11.48;8.00;;;;;;;13.85;100.00;98060.19;5013047;28;20040;-79
2021/06/11 02:19:37;;;;;;;10.80;8.38;;;;;;;13.95;100.00;98057.16;5013133;28;20026;-80
2021/06/11 02:22:03;;;;;;;10.25;8.48;;;;;;;14.05;100.00;98052.53;5013038;28;20549;-79
2021/06/11 02:24:29;;;;;;;12.23;7.57;;;;;;;13.95;100.00;98053.59;5004676;28;20502;-82
2021/06/11 02:26:55;;;;;;;14.43;8.10;;;;;;;13.88;100.00;98048.53;5003062;28;20021;-81
2021/06/11 02:29:20;;;;;;;8.75;7.07;;;;;;;13.94;100.00;98057.47;5007358;28;20129;-84
2021/06/11 02:31:46;;;;;;;17.17;7.18;;;;;;;14.01;100.00;98063.34;5012871;28;20034;-81
2021/06/11 02:34:13;;;;;;;9.57;7.68;;;;;;;13.98;100.00;98038.41;5009452;28;20046;-81
2021/06/11 02:36:38;;;;;;;7.80;6.75;;;;;;;14.00;100.00;98050.75;5001349;28;20057;-81
2021/06/11 02:39:04;;;;;;;16.00;7.50;;;;;;;14.07;100.00;98050.25;5001148;28;20022;-82
2021/06/11 02:41:35;;;;;;;8.23;6.65;;;;;;;14.00;100.00;98058.16;4993590;28;20069;-83
2021/06/11 02:44:03;;;;;;;8.00;6.97;;;;;;;13.87;100.00;98055.19;4998485;28;20120;-80
2021/06/11 02:46:47;;;;;;;9.18;6.88;;;;;;;13.89;100.00;98049.38;5003078;28;20097;-82
2021/06/11 02:49:39;;;;;;;13.77;6.90;;;;;;;13.86;100.00;98047.25;5009237;28;20030;-83
2021/06/11 02:52:07;;;;;;;9.13;7.07;;;;;;;13.86;100.00;98050.81;5002689;28;20041;-85
2021/06/11 02:54:39;;;;;;;9.65;7.07;;;;;;;13.86;100.00;98050.81;5012526;28;20487;-81
2021/06/11 02:57:30;;;;;;;9.07;7.00;;;;;;;13.86;100.00;98061.00;5012628;28;20038;-82
2021/06/11 03:00:08;;;;;;;7.60;6.50;;;;;;;13.94;100.00;98057.47;5012349;28;20030;-85
2021/06/11 03:02:38;;;;;;;8.50;7.03;;;;;;;13.83;100.00;98056.13;5012314;28;20061;-83
2021/06/11 03:05:04;;;;;;;8.27;7.47;;;;;;;14.01;100.00;98059.78;4994494;28;20029;-83
2021/06/11 03:07:33;;;;;;;8.82;6.45;;;;;;;14.03;100.00;98055.59;5012488;28;20039;-82
2021/06/11 03:10:06;;;;;;;11.73;7.60;;;;;;;14.06;100.00;98049.47;5012054;28;20029;-84
2021/06/11 03:12:33;;;;;;;9.20;7.13;;;;;;;14.12;100.00;98061.16;5012045;28;20475;-80
2021/06/11 03:14:59;;;;;;;12.30;6.93;;;;;;;14.14;100.00;98067.94;5012544;28;20034;-82
2021/06/11 03:17:30;;;;;;;8.60;7.15;;;;;;;14.19;100.00;98072.53;4994608;28;20057;-81
2021/06/11 03:19:59;;;;;;;7.93;6.63;;;;;;;14.05;100.00;98071.78;5005952;28;20503;-84
2021/06/11 03:22:40;;;;;;;11.05;7.20;;;;;;;13.93;100.00;98073.19;5001589;28;20364;-80
2021/06/11 03:25:16;;;;;;;8.73;7.82;;;;;;;13.88;100.00;98075.22;5007666;28;20104;-84
2021/06/11 03:27:46;;;;;;;10.35;7.00;;;;;;;13.74;100.00;98075.31;5012089;28;20430;-81
2021/06/11 03:30:15;;;;;;;11.45;7.78;;;;;;;13.66;100.00;98083.47;5012017;28;20037;-82
2021/06/11 03:32:53;;;;;;;8.70;7.80;;;;;;;13.64;100.00;98086.56;5012028;28;20030;-83
2021/06/11 03:35:23;;;;;;;12.73;7.32;;;;;;;13.60;100.00;98084.72;5012452;28;20034;-81
2021/06/11 03:37:56;;;;;;;11.82;9.02;;;;;;;13.67;100.00;98093.34;5011801;28;20033;-83
2021/06/11 03:40:25;;;;;;;9.38;8.10;;;;;;;13.73;100.00;98100.34;4993945;28;20036;-82
2021/06/11 03:42:52;;;;;;;8.63;7.40;;;;;;;13.70;100.00;98096.31;4994772;28;20056;-83
2021/06/11 03:45:18;;;;;;;10.18;7.68;;;;;;;13.73;100.00;98094.84;5012021;28;20026;-83
2021/06/11 03:47:46;;;;;;;8.18;7.38;;;;;;;13.78;100.00;98092.78;5008346;28;20049;-84
2021/06/11 03:50:16;;;;;;;11.93;7.40;;;;;;;13.85;100.00;98104.16;5003601;28;20454;-83
2021/06/11 03:52:42;;;;;;;11.95;8.05;;;;;;;14.01;100.00;98098.28;5002062;28;20049;-83
2021/06/11 03:55:21;;;;;;;12.35;7.57;;;;;;;14.20;100.00;98102.47;4995017;28;20122;-84
2021/06/11 03:57:51;;;;;;;10.23;7.47;;;;;;;14.40;100.00;98098.38;4987078;28;20069;-81
2021/06/11 04:00:21;;;;;;;8.02;7.18;;;;;;;14.45;100.00;98101.81;5004005;28;20026;-82
2021/06/11 04:02:47;;;;;;;9.77;8.57;;;;;;;14.42;100.00;98102.44;5011997;28;20017;-84
2021/06/11 04:05:13;;;;;;;10.27;7.43;;;;;;;14.38;100.00;98095.13;5011922;28;20018;-82
2021/06/11 04:07:54;;;;;;;10.07;7.05;;;;;;;14.23;100.00;98088.06;5013141;28;20044;-84
2021/06/11 04:10:22;;;;;;;12.15;7.22;;;;;;;14.36;100.00;98092.72;5013088;28;20038;-83
2021/06/11 04:12:55;;;;;;;7.70;6.47;;;;;;;14.54;100.00;98085.31;5015215;28;20098;-83
2021/06/11 04:15:25;;;;;;;8.85;6.18;;;;;;;14.78;100.00;98087.69;5000129;28;20033;-83
2021/06/11 04:17:55;;;;;;;10.18;7.22;;;;;;;14.80;100.00;98091.75;5012548;28;20085;-80
2021/06/11 04:20:25;;;;;;;9.18;6.47;;;;;;;15.03;100.00;98086.97;4993831;28;20527;-82
2021/06/11 04:22:53;;;;;;;7.22;6.50;;;;;;;14.95;100.00;98093.25;5011218;28;20104;-80
2021/06/11 04:25:20;;;;;;;9.73;6.57;;;;;;;14.98;100.00;98093.41;5010853;28;20026;-82
2021/06/11 04:27:52;;;;;;;7.30;6.47;;;;;;;15.02;100.00;98090.84;5010826;28;20026;-80
2021/06/11 04:30:18;;;;;;;8.45;6.57;;;;;;;15.02;100.00;98093.59;5010932;28;20084;-81
2021/06/11 04:32:44;;;;;;;7.63;6.82;;;;;;;14.98;100.00;98098.94;5002775;28;20701;-80
2021/06/11 04:35:10;;;;;;;10.05;7.53;;;;;;;15.12;100.00;98109.00;4983918;28;20113;-82
2021/06/11 04:37:38;;;;;;;8.45;7.05;;;;;;;15.13;100.00;98116.16;5008094;28;20041;-82
2021/06/11 04:40:07;;;;;;;7.30;6.45;;;;;;;15.31;100.00;98117.81;5011137;28;20090;-82
2021/06/11 04:42:34;;;;;;;6.93;5.95;;;;;;;15.30;98.18;98110.66;5010988;28;20044;-82
2021/06/11 04:45:00;;;;;;;8.73;7.57;;;;;;;15.07;100.00;98109.97;5011285;28;20112;-83
2021/06/11 04:47:27;;;;;;;13.10;7.30;;;;;;;14.98;100.00;98114.63;5004541;28;20521;-83
2021/06/11 04:49:54;;;;;;;7.78;6.88;;;;;;;14.80;100.00;98118.47;4991975;28;20030;-79
2021/06/11 04:52:19;;;;;;;9.15;6.38;;;;;;;14.81;100.00;98120.09;5010739;28;20026;-81
2021/06/11 04:54:45;;;;;;;8.07;6.85;;;;;;;14.85;100.00;98119.13;5010544;28;20038;-81
2021/06/11 04:57:10;;;;;;;8.88;6.78;;;;;;;14.95;100.00;98127.13;5009846;28;20038;-80
2021/06/11 04:59:36;;;;;;;7.45;6.63;;;;;;;15.07;100.00;98129.25;5010178;28;20037;-81
2021/06/11 05:02:01;;;;;;;7.53;6.45;;;;;;;15.29;99.60;98126.38;5010142;28;20037;-82
2021/06/11 05:04:27;;;;;;;9.68;7.60;;;;;;;15.17;100.00;98123.44;5009784;28;20025;-82
2021/06/11 05:06:52;;;;;;;10.02;7.03;;;;;;;15.25;99.50;98136.44;4994306;28;20448;-80
2021/06/11 05:09:17;;;;;;;10.73;6.05;;;;;;;15.61;98.64;98136.19;5000868;28;20031;-78
2021/06/11 05:11:43;;;;;;;8.00;7.15;;;;;;;15.68;96.33;98139.28;4999881;28;20049;-77
2021/06/11 05:14:08;;;;;;;7.15;6.22;;;;;;;15.79;96.75;98145.25;5009779;28;20034;-78
2021/06/11 05:16:34;;;;;;;7.78;6.00;;;;;;;15.69;96.52;98132.63;5010083;28;20084;-80
2021/06/11 05:18:59;;;;;;;8.45;6.93;;;;;;;15.50;97.58;98132.94;5009223;28;20026;-79
2021/06/11 05:21:25;;;;;;;8.93;6.50;;;;;;;15.76;96.47;98143.16;5009537;28;20024;-81
2021/06/11 05:23:50;;;;;;;7.13;6.43;;;;;;;15.65;96.94;98150.97;4992221;28;20518;-81
2021/06/11 05:26:15;;;;;;;10.63;7.00;;;;;;;15.51;96.14;98133.72;4991598;28;20395;-81
2021/06/11 05:28:41;;;;;;;7.60;6.80;;;;;;;15.55;96.60;98134.72;5010389;28;20049;-81
2021/06/11 05:31:07;;;;;;;11.63;6.72;;;;;;;15.93;96.12;98143.16;5008966;28;20113;-79
2021/06/11 05:33:32;;;;;;;11.38;7.50;;;;;;;16.21;93.81;98147.19;5009515;28;20030;-80
2021/06/11 05:35:58;;;;;;;13.20;7.95;;;;;;;15.94;93.21;98156.63;5008508;28;20032;-83
2021/06/11 05:38:23;;;;;;;10.65;8.18;;;;;;;15.97;93.78;98157.94;5002028;28;20114;-82
2021/06/11 05:40:48;;;;;;;12.45;7.10;;;;;;;16.17;93.48;98145.41;5001100;28;20030;-83
2021/06/11 05:43:14;;;;;;;11.07;8.48;;;;;;;15.96;93.95;98150.78;5001426;28;20033;-82
2021/06/11 05:45:40;;;;;;;10.38;7.82;;;;;;;16.07;94.57;98146.56;4982031;28;20126;-84
2021/06/11 05:48:06;;;;;;;10.68;7.40;;;;;;;15.87;94.19;98153.56;5003403;28;20050;-82
2021/06/11 05:50:32;;;;;;;9.02;7.03;;;;;;;16.00;93.50;98155.34;5001131;28;20018;-81
2021/06/11 05:52:58;;;;;;;9.45;7.45;;;;;;;16.28;93.15;98147.53;4987277;28;20487;-81
2021/06/11 05:55:25;;;;;;;11.10;6.93;;;;;;;16.55;90.53;98151.88;4990426;28;20105;-79
2021/06/11 05:57:51;;;;;;;20.48;8.32;;;;;;;16.59;92.50;98163.88;4985072;28;20088;-75
2021/06/11 06:00:17;;;;;;;11.35;7.35;;;;;;;16.72;90.52;98160.09;4998587;28;20072;-75
2021/06/11 06:02:43;;;;;;;8.32;6.50;;;;;;;16.75;89.20;98156.69;5002848;28;20034;-76
2021/06/11 06:05:09;;;;;;;8.30;7.50;;;;;;;16.94;88.89;98167.34;4990970;28;20022;-74
2021/06/11 06:07:36;;;;;;;8.55;7.30;;;;;;;16.78;89.08;98169.84;5002720;28;20054;-74
2021/06/11 06:10:01;;;;;;;12.50;8.02;;;;;;;16.92;88.62;98159.38;5001457;28;20150;-75
2021/06/11 06:12:27;;;;;;;11.30;7.22;;;;;;;16.80;88.30;98153.72;5001596;28;20480;-74
2021/06/11 06:14:52;;;;;;;10.13;7.70;;;;;;;16.58;89.83;98157.53;5002726;28;20038;-75
2021/06/11 06:17:17;;;;;;;10.77;7.00;;;;;;;16.81;90.21;98160.88;5000415;28;20033;-74
2021/06/11 06:19:43;;;;;;;6.80;6.18;;;;;;;17.00;88.79;98158.53;5001596;28;20157;-83
2021/06/11 06:22:10;;;;;;;12.68;7.15;;;;;;;17.06;88.22;98156.38;4999413;28;20026;-86
2021/06/11 06:24:36;;;;;;;8.30;7.45;;;;;;;17.01;87.16;98160.13;4990722;28;20500;-86
2021/06/11 06:27:01;;;;;;;14.52;8.30;;;;;;;17.28;85.60;98158.88;4992035;28;20066;-87
2021/06/11 06:29:26;;;;;;;17.33;7.57;;;;;;;17.74;84.73;98174.56;5006833;28;20137;-85
2021/06/11 06:31:52;;;;;;;10.43;6.88;;;;;;;17.93;82.69;98158.28;5009729;28;20064;-85
2021/06/11 06:34:19;;;;;;;12.27;7.85;;;;;;;17.92;82.71;98162.19;5005931;28;20382;-86
2021/06/11 06:36:44;;;;;;;18.20;9.05;;;;;;;18.04;81.92;98169.78;5004650;28;20033;-82
2021/06/11 06:39:10;;;;;;;11.23;7.05;;;;;;;18.03;82.24;98168.97;5001104;28;20056;-84
2021/06/11 06:41:36;;;;;;;9.63;7.05;;;;;;;18.32;81.72;98168.06;4999450;28;20033;-85
2021/06/11 06:44:03;;;;;;;10.13;7.00;;;;;;;18.11;81.43;98162.53;5004818;28;20390;-85
2021/06/11 06:46:28;;;;;;;10.48;7.82;;;;;;;18.27;81.10;98162.72;4998824;28;20058;-84
2021/06/11 06:48:54;;;;;;;11.82;6.15;;;;;;;18.33;80.68;98177.16;4995349;28;20093;-85
2021/06/11 06:51:23;;;;;;;9.52;6.45;;;;;;;18.48;80.00;98179.31;4999035;28;20026;-83
2021/06/11 06:53:48;;;;;;;10.35;6.22;;;;;;;18.25;80.51;98176.09;5004851;28;20045;-86
2021/06/11 06:56:14;;;;;;;7.50;6.43;;;;;;;18.30;81.35;98181.41;5004608;28;20033;-84
2021/06/11 06:58:40;;;;;;;9.95;7.50;;;;;;;18.17;80.32;98183.31;4996211;28;20026;-85
2021/06/11 07:01:05;;;;;;;7.60;6.35;;;;;;;18.01;81.52;98176.78;5003243;28;20030;-85
2021/06/11 07:03:31;;;;;;;11.63;6.93;;;;;;;17.93;82.31;98185.97;4988284;28;20037;-82
2021/06/11 07:05:58;;;;;;;13.18;7.03;;;;;;;18.16;82.99;98180.91;4985043;28;20822;-81
2021/06/11 07:08:26;;;;;;;8.85;7.22;;;;;;;17.99;82.51;98179.09;5000282;28;20030;-79
2021/06/11 07:10:53;;;;;;;9.77;7.22;;;;;;;17.94;82.85;98176.53;5004100;28;20025;-82
2021/06/11 07:13:18;;;;;;;9.35;7.32;;;;;;;17.95;82.35;98186.44;4994308;28;20034;-79
2021/06/11 07:15:44;;;;;;;7.53;6.22;;;;;;;18.46;80.88;98181.59;4998127;28;20034;-80
2021/06/11 07:18:09;;;;;;;13.60;6.75;;;;;;;18.71;79.53;98186.09;4998511;28;20026;-79
2021/06/11 07:20:35;;;;;;;7.93;6.85;;;;;;;18.82;78.14;98190.06;5000023;28;20146;-79
2021/06/11 07:23:02;;;;;;;9.27;7.00;;;;;;;18.93;77.59;98184.84;4998957;28;20438;-79
2021/06/11 07:25:28;;;;;;;8.20;6.82;;;;;;;19.10;78.21;98177.16;5000210;28;20033;-81
2021/06/11 07:27:53;;;;;;;11.77;7.22;;;;;;;18.95;78.39;98186.13;4999418;28;20030;-79
2021/06/11 07:30:19;;;;;;;10.98;7.45;;;;;;;19.16;78.09;98175.78;4997997;28;20076;-80
2021/06/11 07:32:44;;;;;;;13.85;8.32;;;;;;;19.17;76.89;98171.81;4998817;28;20022;-80
2021/06/11 07:35:12;;;;;;;9.85;8.30;;;;;;;19.67;75.36;98174.25;4999240;28;20479;-81
2021/06/11 07:37:37;;;;;;;13.23;6.97;;;;;;;19.76;73.56;98176.91;4981298;28;20034;-80
2021/06/11 07:40:07;;;;;;;14.40;7.38;;;;;;;19.81;73.27;98168.34;5000732;28;20073;-78
2021/06/11 07:42:33;;;;;;;8.35;6.93;;;;;;;20.09;73.04;98160.84;4980725;28;20022;-79
2021/06/11 07:44:58;;;;;;;8.00;6.53;;;;;;;20.22;72.59;98162.44;4999567;28;20029;-79
2021/06/11 07:47:24;;;;;;;13.07;6.65;;;;;;;20.33;72.31;98175.88;4998629;28;20038;-79
2021/06/11 07:49:49;;;;;;;8.73;6.65;;;;;;;20.27;71.22;98161.38;4999318;28;20079;-80
2021/06/11 07:52:18;;;;;;;9.63;6.72;;;;;;;20.30;71.15;98166.25;4983009;28;20357;-82
2021/06/11 07:54:43;;;;;;;8.35;6.30;;;;;;;20.49;69.36;98155.28;5001055;28;20022;-78
2021/06/11 07:57:10;;;;;;;6.65;5.88;;;;;;;20.11;69.32;98161.31;4999148;28;20053;-81
2021/06/11 07:59:35;;;;;;;7.13;4.85;;;;;;;19.86;70.18;98159.75;4981225;28;20034;-79
2021/06/11 08:02:01;;;;;;;7.80;5.10;;;;;;;19.84;69.30;98170.41;4998405;28;20033;-80
2021/06/11 08:04:26;;;;;;;9.00;5.30;;;;;;;19.75;68.68;98155.84;4999421;28;20025;-80
2021/06/11 08:06:52;;;;;;;5.97;5.32;;;;;;;20.26;71.14;98177.28;4982315;28;20029;-82
2021/06/11 08:09:17;;;;;;;7.25;5.75;;;;;;;20.46;67.17;98174.63;5000498;28;20030;-80
2021/06/11 08:11:43;;;;;;;8.18;6.07;;;;;;;20.34;66.83;98177.47;4982794;28;20574;-80
2021/06/11 08:14:09;;;;;;;8.18;6.22;;;;;;;20.19;67.60;98176.22;4999498;28;20037;-80
2021/06/11 08:16:34;;;;;;;7.85;6.32;;;;;;;20.46;67.22;98178.22;4997208;28;20037;-81
2021/06/11 08:19:02;;;;;;;9.73;6.15;;;;;;;21.20;65.46;98166.34;5000365;28;20026;-80
2021/06/11 08:21:27;;;;;;;10.13;6.50;;;;;;;22.24;61.03;98178.69;4998679;28;20026;-81
2021/06/11 08:23:53;;;;;;;6.63;5.35;;;;;;;22.77;57.95;98177.00;4999003;28;20049;-81
2021/06/11 08:26:18;;;;;;;7.68;5.47;;;;;;;22.97;56.32;98172.16;4999902;28;20487;-80
2021/06/11 08:28:44;;;;;;;6.47;5.03;;;;;;;22.89;55.67;98162.88;4998527;28;20017;-80
2021/06/11 08:31:09;;;;;;;7.35;5.68;;;;;;;22.92;57.72;98168.53;5000661;28;20049;-79
2021/06/11 08:33:35;;;;;;;6.50;5.85;;;;;;;23.67;55.24;98164.19;4998663;28;20026;-82
2021/06/11 08:36:00;;;;;;;9.73;5.00;;;;;;;23.61;56.33;98168.50;4999826;28;20456;-79
2021/06/11 08:38:27;;;;;;;8.43;5.53;;;;;;;24.99;53.99;98174.72;4997544;28;20030;-80
2021/06/11 08:40:54;;;;;;;7.25;5.55;;;;;;;25.21;51.05;98169.31;4982926;28;20061;-79
2021/06/11 08:43:22;;;;;;;5.78;5.18;;;;;;;24.98;52.41;98167.50;4999161;28;20030;-82
2021/06/11 08:45:49;;;;;;;11.85;5.82;;;;;;;24.84;53.39;98174.97;5002903;28;20113;-79
2021/06/11 08:48:16;;;;;;;11.10;5.25;;;;;;;24.73;53.39;98177.59;4993711;28;20053;-81
2021/06/11 08:50:41;;;;;;;15.88;5.82;;;;;;;24.37;53.42;98181.19;5009341;28;20099;-81
2021/06/11 08:53:10;;;;;;;8.95;5.35;;;;;;;24.27;53.69;98173.47;5001137;28;20108;-82
2021/06/11 08:55:36;;;;;;;6.85;5.13;;;;;;;23.94;53.25;98174.16;4997361;28;20062;-82
2021/06/11 08:58:03;;;;;;;6.68;4.70;;;;;;;23.86;54.44;98173.28;5001420;28;20080;-84
2021/06/11 09:00:30;;;;;;;10.50;4.88;;;;;;;23.77;54.09;98169.97;4992457;28;20050;-83
2021/06/11 09:03:21;;;;;;;8.32;4.78;;;;;;;23.78;53.95;98171.53;4990265;28;20499;-83
2021/06/11 09:06:04;;;;;;;6.63;4.75;;;;;;;23.71;53.45;98170.66;4990154;28;20164;-82
2021/06/11 09:08:29;;;;;;;7.30;4.63;;;;;;;24.72;51.09;98180.78;4990604;28;20031;-83
2021/06/11 09:11:19;;;;;;;5.97;4.05;;;;;;;26.07;47.08;98183.59;4990143;28;20034;-82
2021/06/11 09:13:59;;;;;;;12.20;4.35;;;;;;;26.24;49.96;98170.91;4989601;28;20027;-81
2021/06/11 09:16:26;;;;;;;6.97;5.35;;;;;;;27.09;43.64;98186.06;4990157;28;20105;-86
2021/06/11 09:18:52;;;;;;;6.85;3.67;;;;;;;25.21;47.82;98174.91;4992398;28;20038;-86
2021/06/11 09:21:42;;;;;;;7.97;3.50;;;;;;;25.28;47.33;98175.78;4991337;28;20547;-83
2021/06/11 09:26:59;;;;;;;5.47;4.57;;;;;;;26.35;47.17;98182.97;5004312;28;20034;-84
2021/06/11 09:29:29;;;;;;;11.50;4.57;;;;;;;27.03;44.59;98182.03;4994656;28;20049;-83
2021/06/11 09:32:26;;;;;;;11.35;5.05;;;;;;;26.60;45.35;98179.06;5011472;28;20474;-87
2021/06/11 09:34:55;;;;;;;7.80;4.15;;;;;;;26.40;44.71;98174.19;5011445;28;20061;-84
2021/06/11 09:37:33;;;;;;;5.55;3.67;;;;;;;26.97;43.00;98178.00;5014607;28;20026;-84
2021/06/11 09:40:02;;;;;;;5.03;3.42;;;;;;;26.96;42.85;98173.59;5003097;28;20026;-85
2021/06/11 09:42:32;;;;;;;9.85;3.60;;;;;;;26.44;43.36;98169.38;5013651;28;20030;-86
2021/06/11 09:45:07;;;;;;;3.58;2.88;;;;;;;27.16;42.85;98179.66;4981959;28;20439;-88
2021/06/11 09:47:35;;;;;;;3.05;2.55;;;;;;;27.59;39.45;98168.03;4980791;28;20069;-88
2021/06/11 09:50:13;;;;;;;4.88;2.53;;;;;;;27.26;39.93;98176.03;4977668;28;20034;-86
2021/06/11 09:53:00;;;;;;;3.88;2.58;;;;;;;27.26;39.42;98171.22;4995284;28;20049;-82
2021/06/11 09:55:27;;;;;;;7.05;2.92;;;;;;;28.18;38.49;98157.09;4994892;28;20047;-87
2021/06/11 09:58:15;;;;;;;3.08;2.70;;;;;;;28.93;35.09;98161.22;5007184;28;20084;-87
2021/06/11 10:00:55;;;;;;;5.53;3.30;;;;;;;28.47;36.74;98155.00;5006496;28;20113;-88
2021/06/11 10:03:29;;;;;;;8.02;2.70;;;;;;;27.99;38.37;98157.53;5014233;28;20042;-85
2021/06/11 10:05:57;;;;;;;3.75;2.58;;;;;;;28.21;38.28;98147.84;5016781;28;20025;-87
2021/06/11 10:08:24;;;;;;;3.80;2.70;;;;;;;28.31;38.54;98140.56;5015893;28;20036;-88
2021/06/11 10:10:51;;;;;;;6.53;2.75;;;;;;;27.24;38.51;98139.91;5017376;28;20033;-88
2021/06/11 10:13:18;;;;;;;5.40;3.13;;;;;;;26.97;39.95;98141.50;4999661;28;20026;-87
2021/06/11 10:15:46;;;;;;;3.25;2.33;;;;;;;26.39;39.88;98136.91;5002765;28;20411;-87
2021/06/11 10:18:13;;;;;;;5.13;2.35;;;;;;;27.24;39.43;98134.28;5021262;28;20049;-87
2021/06/11 10:20:42;;;;;;;7.68;2.70;;;;;;;27.10;38.42;98139.88;5013413;28;20037;-91
2021/06/11 10:23:11;;;;;;;2.45;2.15;;;;;;;26.44;39.29;98132.88;5030119;28;20041;-89
2021/06/11 10:25:41;;;;;;;5.10;2.60;;;;;;;26.85;39.61;98139.84;4995702;28;20030;-75
2021/06/11 10:28:07;;;;;;;5.68;2.05;;;;;;;27.73;38.32;98133.47;5011421;28;20034;-73
2021/06/11 10:30:33;;;;;;;3.65;2.30;;;;;;;27.93;38.17;98128.22;5009808;28;20029;-73
2021/06/11 10:32:59;;;;;;;5.30;2.45;;;;;;;26.63;40.22;98126.94;5011297;28;20087;-73
2021/06/11 10:35:47;;;;;;;3.10;2.45;;;;;;;26.00;40.11;98116.25;4993715;28;20453;-75
2021/06/11 10:38:34;;;;;;;2.60;2.22;;;;;;;25.75;41.68;98123.75;5003570;28;20046;-75
2021/06/11 10:41:01;;;;;;;2.53;2.20;;;;;;;25.56;42.96;98119.22;4991957;28;20030;-74
2021/06/11 10:43:30;;;;;;;2.75;2.05;;;;;;;25.59;44.35;98112.00;5010584;28;20033;-74
2021/06/11 10:45:58;;;;;;;3.63;2.15;;;;;;;25.66;41.47;98115.66;5011575;28;20427;-74
2021/06/11 10:48:24;;;;;;;2.75;1.58;;;;;;;25.39;40.35;98115.06;5010450;28;20050;-73
2021/06/11 10:50:50;;;;;;;2.70;2.00;;;;;;;25.51;41.94;98109.16;5011306;28;20563;-77
2021/06/11 10:53:29;;;;;;;2.47;2.28;;;;;;;25.20;42.42;98100.50;5023426;28;20064;-88
2021/06/11 10:56:15;;;;;;;2.03;1.80;;;;;;;24.80;41.53;98093.72;5020960;28;20025;-86
2021/06/11 10:58:42;;;;;;;;;;;;;;;24.69;41.89;98101.19;5021561;28;20068;-86
2021/06/11 11:01:25;;;;;;;2.97;2.42;;;;;;;24.77;41.84;98094.50;5021990;28;19917;-87
2021/06/11 11:03:51;;;;;;;2.08;1.83;;;;;;;24.96;42.34;98097.09;5015941;28;20105;-79
2021/06/11 11:06:28;;;;;;;5.20;2.70;;;;;;;25.44;41.64;98091.44;5015852;28;20053;-77
2021/06/11 11:08:57;;;;;;;3.88;2.17;;;;;;;26.18;39.80;98100.34;5001924;28;20042;-80
2021/06/11 11:11:35;;;;;;;2.53;1.90;;;;;;;25.84;41.00;98084.94;4993570;28;20030;-82
2021/06/11 11:14:02;;;;;;;2.45;2.17;;;;;;;25.09;41.82;98092.00;4975688;28;20041;-83
2021/06/11 11:16:34;;;;;;;3.13;2.15;;;;;;;25.42;40.91;98077.84;5014307;28;20487;-86
2021/06/11 11:19:00;;;;;;;2.60;2.40;;;;;;;25.94;40.55;98079.38;5016841;28;20361;-83
2021/06/11 11:21:39;;;;;;;2.78;2.10;;;;;;;25.87;40.14;98078.53;4998117;28;20032;-78
2021/06/11 11:24:09;;;;;;;4.70;2.28;;;;;;;25.93;40.23;98077.78;4995012;28;20022;-81
2021/06/11 11:26:39;;;;;;;2.78;2.08;;;;;;;25.43;42.02;98073.88;4987684;28;20144;-81
2021/06/11 11:29:05;;;;;;;3.55;2.00;;;;;;;25.86;41.24;98066.53;5011766;28;20033;-89
2021/06/11 11:31:32;;;;;;;5.03;2.00;;;;;;;25.93;40.72;98062.94;4995354;28;20040;-88
2021/06/11 11:33:57;;;;;;;2.17;1.60;;;;;;;26.69;40.44;98074.81;5011629;28;20018;-87
2021/06/11 11:36:28;;;;;;;2.30;1.67;;;;;;;26.32;39.38;98077.94;4986530;28;20077;-84